Time;durP1;ratioP1;P1;durP2;ratioP2;P2;SDS_P1;SDS_P2;PMS_P1;PMS_P2;Temp;Humidity;BMP_temperature;BMP_pressure;BME280_temperature;BME280_humidity;BME280_pressure;Samples;Min_cycle;Max_cycle;Signal;HPM_P1;HPM_P2
2023/07/15 00:00:58;;;;;;;2.08;1.88;;;;;;;21.15;52.39;100325.03;5095533;28;20028;-84
2023/07/15 00:03:23;;;;;;;2.20;2.00;;;;;;;21.12;52.86;100312.91;5094458;28;20541;-84
2023/07/15 00:05:51;;;;;;;2.27;2.07;;;;;;;21.17;53.03;100331.06;5095713;28;20020;-85
2023/07/15 00:08:17;;;;;;;2.20;2.00;;;;;;;21.16;52.62;100325.91;5094957;28;20028;-84
2023/07/15 00:10:45;;;;;;;2.93;1.70;;;;;;;21.12;52.80;100323.47;5095017;28;20020;-84
2023/07/15 00:13:16;;;;;;;2.08;1.88;;;;;;;21.12;51.75;100312.91;5096041;28;20020;-84
2023/07/15 00:15:45;;;;;;;2.35;2.08;;;;;;;21.13;52.22;100324.31;5095033;28;20035;-85
2023/07/15 00:18:12;;;;;;;2.30;2.10;;;;;;;21.16;52.41;100325.91;5093922;28;20023;-84
2023/07/15 00:20:37;;;;;;;2.70;2.10;;;;;;;21.19;51.85;100323.03;5095228;28;20060;-85
2023/07/15 00:23:18;;;;;;;2.07;1.93;;;;;;;21.23;51.77;100319.25;5094501;28;20055;-84
2023/07/15 00:25:44;;;;;;;2.45;2.20;;;;;;;21.24;51.53;100327.06;5095243;28;20020;-85
2023/07/15 00:28:10;;;;;;;2.78;1.85;;;;;;;21.24;51.99;100318.31;5094881;28;20065;-84
2023/07/15 00:30:36;;;;;;;2.20;2.00;;;;;;;21.22;51.73;100323.66;5094673;28;20020;-84
2023/07/15 00:33:02;;;;;;;2.58;2.08;;;;;;;21.20;51.65;100312.41;5095365;28;20024;-84
2023/07/15 00:35:31;;;;;;;2.00;1.90;;;;;;;21.22;52.10;100326.31;5094150;28;20115;-84
2023/07/15 00:37:59;;;;;;;3.55;2.15;;;;;;;21.31;51.05;100316.91;5094293;28;20369;-85
2023/07/15 00:40:26;;;;;;;2.20;2.00;;;;;;;21.24;51.40;100315.66;5095100;28;20032;-84
2023/07/15 00:43:30;;;;;;;2.63;2.13;;;;;;;21.23;51.80;100321.88;5095319;28;20150;-85
2023/07/15 00:46:21;;;;;;;2.22;2.03;;;;;;;21.22;51.24;100322.84;5094091;28;20086;-85
2023/07/15 00:49:13;;;;;;;2.22;2.05;;;;;;;21.22;51.57;100328.09;5094813;28;20027;-84
2023/07/15 00:51:44;;;;;;;2.38;2.10;;;;;;;21.21;51.52;100332.56;5093459;28;20480;-84
2023/07/15 00:54:11;;;;;;;2.75;2.10;;;;;;;21.18;51.57;100321.34;5094429;28;20464;-84
2023/07/15 00:56:38;;;;;;;2.20;2.00;;;;;;;21.22;51.31;100330.75;5094369;28;20051;-84
2023/07/15 00:59:04;;;;;;;2.38;1.90;;;;;;;21.22;51.69;100336.03;5093773;28;20064;-84
2023/07/15 01:01:30;;;;;;;2.58;2.00;;;;;;;21.19;51.39;100333.59;5094113;28;20537;-85
2023/07/15 01:03:56;;;;;;;2.30;2.08;;;;;;;21.17;51.21;100327.59;5094086;28;20032;-84
2023/07/15 01:06:22;;;;;;;2.00;1.90;;;;;;;21.16;51.84;100337.28;5093524;28;20106;-85
2023/07/15 01:08:47;;;;;;;2.30;1.90;;;;;;;21.14;51.39;100337.41;5094051;28;20388;-84
2023/07/15 01:11:12;;;;;;;2.83;2.10;;;;;;;21.12;51.77;100328.75;5093361;28;20115;-84
2023/07/15 01:13:38;;;;;;;2.27;1.77;;;;;;;21.12;51.80;100334.03;5093610;28;20017;-84
2023/07/15 01:16:04;;;;;;;2.10;1.90;;;;;;;21.09;51.88;100342.13;5094481;28;20028;-84
2023/07/15 01:18:30;;;;;;;2.22;2.00;;;;;;;21.06;51.92;100342.34;5093967;28;20099;-84
2023/07/15 01:21:01;;;;;;;1.80;1.70;;;;;;;21.00;52.15;100340.13;5093163;28;20391;-84
2023/07/15 01:23:28;;;;;;;1.92;1.80;;;;;;;20.93;52.14;100337.06;5094133;28;20067;-84
2023/07/15 01:25:54;;;;;;;1.80;1.70;;;;;;;20.86;52.18;100327.88;5093600;28;20016;-84
2023/07/15 01:28:19;;;;;;;1.77;1.67;;;;;;;20.83;52.37;100335.97;5093392;28;20036;-84
2023/07/15 01:30:44;;;;;;;1.80;1.70;;;;;;;20.79;52.28;100339.75;5093679;28;20123;-84
2023/07/15 01:33:10;;;;;;;2.70;1.70;;;;;;;20.75;52.54;100333.84;5093266;28;20028;-83
2023/07/15 01:35:36;;;;;;;;;;;;;;;20.75;52.80;100340.94;5094457;28;20048;-84
2023/07/15 01:38:03;;;;;;;1.87;1.77;;;;;;;20.70;52.81;100346.47;5093944;28;19912;-85
2023/07/15 01:40:29;;;;;;;1.65;1.55;;;;;;;20.65;52.79;100340.66;5092565;28;20050;-85
2023/07/15 01:42:54;;;;;;;1.20;1.20;;;;;;;20.58;52.74;100340.19;5094074;28;20019;-84
2023/07/15 01:45:20;;;;;;;1.50;1.40;;;;;;;20.57;53.07;100342.94;5093147;28;20464;-84
2023/07/15 01:47:45;;;;;;;1.48;1.38;;;;;;;20.49;52.70;100346.91;5092708;28;20043;-84
2023/07/15 01:50:10;;;;;;;1.40;1.30;;;;;;;20.42;53.45;100345.63;5093213;28;20028;-84
2023/07/15 01:52:35;;;;;;;1.07;1.07;;;;;;;20.40;53.43;100351.94;5093404;28;20020;-84
2023/07/15 01:55:01;;;;;;;1.20;1.20;;;;;;;20.34;53.46;100351.38;5092939;28;20028;-84
2023/07/15 01:57:27;;;;;;;1.37;1.27;;;;;;;20.26;54.30;100343.13;5092603;28;20044;-84
2023/07/15 01:59:57;;;;;;;;;;;;;;;20.21;54.34;100348.69;5093533;28;20075;-84
2023/07/15 02:02:23;;;;;;;1.70;1.60;;;;;;;20.15;54.24;100354.34;5092603;28;20264;-84
2023/07/15 02:04:49;;;;;;;1.42;1.33;;;;;;;20.08;54.25;100358.31;5093669;28;20106;-84
2023/07/15 02:07:14;;;;;;;1.17;1.17;;;;;;;20.05;54.92;100353.25;5093037;28;20472;-85
2023/07/15 02:09:39;;;;;;;1.73;1.10;;;;;;;19.97;54.71;100350.25;5092507;28;20035;-84
2023/07/15 02:12:05;;;;;;;0.90;0.90;;;;;;;19.94;54.57;100358.34;5093357;28;20472;-84
2023/07/15 02:14:30;;;;;;;1.10;1.10;;;;;;;19.89;54.82;100350.72;5093084;28;20080;-85
2023/07/15 02:16:55;;;;;;;0.70;0.70;;;;;;;19.86;54.90;100345.66;5092372;28;20487;-84
2023/07/15 02:19:20;;;;;;;0.60;0.60;;;;;;;19.82;55.50;100350.22;5092967;28;20039;-84
2023/07/15 02:21:46;;;;;;;0.80;0.80;;;;;;;19.78;55.70;100361.91;5092997;28;20024;-84
2023/07/15 02:24:11;;;;;;;0.80;0.77;;;;;;;19.70;55.56;100357.09;5091962;28;20035;-84
2023/07/15 02:26:36;;;;;;;0.70;0.70;;;;;;;19.68;55.56;100358.97;5093036;28;20111;-84
2023/07/15 02:29:03;;;;;;;0.47;0.47;;;;;;;19.63;56.00;100365.47;5093193;28;20028;-84
2023/07/15 02:31:28;;;;;;;0.60;0.60;;;;;;;19.56;55.82;100350.06;5092327;28;20017;-85
2023/07/15 02:33:53;;;;;;;0.70;0.70;;;;;;;19.53;56.54;100357.31;5092713;28;20025;-84
2023/07/15 02:36:19;;;;;;;0.73;0.67;;;;;;;19.51;56.12;100360.00;5091815;28;20491;-84
2023/07/15 02:38:44;;;;;;;0.60;0.60;;;;;;;19.48;56.22;100364.63;5092895;28;20062;-84
2023/07/15 02:41:10;;;;;;;0.47;0.47;;;;;;;19.44;56.58;100371.84;5092209;28;20161;-84
2023/07/15 02:43:35;;;;;;;0.82;0.82;;;;;;;19.41;56.31;100365.00;5092121;28;20024;-84
2023/07/15 02:46:00;;;;;;;0.70;0.70;;;;;;;19.38;56.71;100359.91;5093107;28;20388;-84
2023/07/15 02:48:26;;;;;;;0.60;0.60;;;;;;;19.35;56.32;100360.09;5092545;28;20492;-84
2023/07/15 02:50:55;;;;;;;0.70;0.70;;;;;;;19.28;56.78;100364.88;5092065;28;20026;-84
2023/07/15 02:53:21;;;;;;;0.70;0.70;;;;;;;19.26;56.72;100368.53;5092325;28;20032;-84
2023/07/15 02:55:52;;;;;;;0.60;0.60;;;;;;;19.21;56.89;100350.41;5092107;28;20232;-84
2023/07/15 02:58:21;;;;;;;0.60;0.60;;;;;;;19.17;56.99;100351.50;5090578;28;20434;-85
2023/07/15 03:00:50;;;;;;;0.60;0.60;;;;;;;19.11;57.19;100347.47;5092480;28;20085;-84
2023/07/15 03:03:15;;;;;;;0.80;0.80;;;;;;;19.04;57.76;100350.53;5092160;28;20085;-84
2023/07/15 03:05:48;;;;;;;0.83;0.83;;;;;;;19.01;57.63;100356.00;5091933;28;20410;-84
2023/07/15 03:08:14;;;;;;;0.77;0.77;;;;;;;18.88;59.11;100350.56;5092290;28;20101;-84
2023/07/15 03:10:44;;;;;;;0.77;0.77;;;;;;;18.81;58.84;100366.69;5092524;28;20028;-84
2023/07/15 03:13:10;;;;;;;0.82;0.82;;;;;;;18.72;59.40;100354.09;5091343;28;20030;-84
2023/07/15 03:15:44;;;;;;;1.00;1.00;;;;;;;18.65;59.96;100356.22;5092526;28;20103;-84
2023/07/15 03:18:10;;;;;;;1.35;1.25;;;;;;;18.53;60.39;100354.28;5091979;28;20028;-84
2023/07/15 03:20:35;;;;;;;0.90;0.88;;;;;;;18.44;59.57;100353.00;5092263;28;20163;-84
2023/07/15 03:23:01;;;;;;;0.90;0.90;;;;;;;18.43;59.56;100361.00;5092284;28;20051;-84
2023/07/15 03:25:26;;;;;;;0.90;0.90;;;;;;;18.36;60.52;100361.31;5092268;28;20170;-84
2023/07/15 03:27:51;;;;;;;0.93;0.93;;;;;;;18.32;60.02;100364.22;5091968;28;20024;-84
2023/07/15 03:30:18;;;;;;;0.97;0.97;;;;;;;18.25;60.40;100355.81;5092385;28;20107;-84
2023/07/15 03:32:44;;;;;;;;;;;;;;;18.24;60.52;100359.38;5092176;28;20024;-84
2023/07/15 03:35:10;;;;;;;1.15;1.02;;;;;;;18.19;61.23;100356.16;5092430;28;19993;-84
2023/07/15 03:37:37;;;;;;;1.30;1.20;;;;;;;18.15;62.51;100358.13;5092352;28;20440;-84
2023/07/15 03:40:10;;;;;;;1.00;1.00;;;;;;;18.09;60.47;100358.44;5091801;28;20407;-84
2023/07/15 03:42:37;;;;;;;0.95;0.95;;;;;;;18.09;60.71;100358.44;5092660;28;20035;-84
2023/07/15 03:45:03;;;;;;;;;;;;;;;18.06;62.29;100358.63;5092280;28;20027;-84
2023/07/15 03:47:29;;;;;;;1.30;1.20;;;;;;;18.01;61.17;100363.28;5091047;28;19928;-84
2023/07/15 03:49:54;;;;;;;1.17;1.10;;;;;;;17.95;61.12;100353.91;5092031;28;20453;-84
2023/07/15 03:52:19;;;;;;;1.27;1.20;;;;;;;17.91;61.07;100350.63;5095081;28;20056;-84
2023/07/15 03:54:45;;;;;;;0.90;0.90;;;;;;;17.89;62.59;100357.72;5094642;28;20111;-84
2023/07/15 03:57:10;;;;;;;1.53;1.13;;;;;;;17.85;62.88;100353.56;5095722;28;20048;-84
2023/07/15 03:59:42;;;;;;;1.57;1.20;;;;;;;17.81;61.76;100353.81;5096036;28;20065;-84
2023/07/15 04:02:08;;;;;;;1.35;1.15;;;;;;;17.78;61.65;100356.59;5094184;28;20097;-83
2023/07/15 04:04:33;;;;;;;1.10;1.10;;;;;;;17.71;62.31;100349.03;5095739;28;20029;-84
2023/07/15 04:07:01;;;;;;;1.43;1.33;;;;;;;17.73;62.47;100352.44;5095803;28;20536;-84
2023/07/15 04:09:27;;;;;;;1.13;1.13;;;;;;;17.71;63.36;100356.91;5093802;28;20105;-84
2023/07/15 04:11:53;;;;;;;1.65;1.20;;;;;;;17.66;62.85;100350.22;5095405;28;20043;-84
2023/07/15 04:14:18;;;;;;;1.63;1.10;;;;;;;17.65;62.98;100348.53;5095097;28;20419;-84
2023/07/15 04:16:43;;;;;;;1.20;1.10;;;;;;;17.64;63.19;100352.94;5093318;28;20028;-83
2023/07/15 04:19:09;;;;;;;1.50;1.40;;;;;;;17.60;64.25;100351.38;5095269;28;20368;-84
2023/07/15 04:21:35;;;;;;;1.70;1.60;;;;;;;17.58;64.91;100350.63;5097046;28;20517;-84
2023/07/15 04:24:00;;;;;;;1.57;1.47;;;;;;;17.58;64.21;100358.50;5096384;28;20024;-83
2023/07/15 04:26:26;;;;;;;1.30;1.20;;;;;;;17.55;64.58;100361.28;5095158;28;20019;-84
2023/07/15 04:28:54;;;;;;;1.00;1.00;;;;;;;17.54;65.80;100362.22;5094968;28;20472;-83
2023/07/15 04:31:20;;;;;;;1.25;1.15;;;;;;;17.52;66.23;100356.19;5094476;28;20028;-84
2023/07/15 04:33:46;;;;;;;1.37;1.27;;;;;;;17.54;64.65;100359.59;5095177;28;20073;-84
2023/07/15 04:36:12;;;;;;;1.20;1.13;;;;;;;17.57;65.02;100365.53;5093703;28;20035;-83
2023/07/15 04:38:38;;;;;;;1.10;1.10;;;;;;;17.60;66.31;100367.13;5094924;28;20074;-83
2023/07/15 04:41:03;;;;;;;2.13;1.03;;;;;;;17.62;64.92;100367.91;5094924;28;20578;-84
2023/07/15 04:43:29;;;;;;;1.23;1.10;;;;;;;17.68;64.90;100374.59;5093701;28;20032;-83
2023/07/15 04:45:54;;;;;;;0.80;0.80;;;;;;;17.68;65.18;100367.56;5094162;28;20463;-83
2023/07/15 04:48:20;;;;;;;0.80;0.80;;;;;;;17.72;65.40;100377.00;5094083;28;20020;-84
2023/07/15 04:50:45;;;;;;;2.17;1.00;;;;;;;17.73;64.75;100383.94;5094316;28;20024;-83
2023/07/15 04:53:11;;;;;;;1.47;1.30;;;;;;;17.78;66.15;100383.69;5094399;28;20161;-83
2023/07/15 04:55:37;;;;;;;0.80;0.80;;;;;;;17.80;65.11;100380.97;5094677;28;20455;-83
2023/07/15 04:58:02;;;;;;;1.30;1.20;;;;;;;17.85;66.14;100376.34;5093262;28;20452;-83
2023/07/15 05:00:29;;;;;;;1.20;1.10;;;;;;;17.89;67.42;100380.50;5093740;28;20032;-83
2023/07/15 05:02:54;;;;;;;1.27;1.20;;;;;;;17.89;65.91;100370.84;5094332;28;20327;-84
2023/07/15 05:05:19;;;;;;;0.80;0.80;;;;;;;17.97;66.84;100386.22;5093182;28;20383;-83
2023/07/15 05:07:45;;;;;;;1.00;1.00;;;;;;;18.00;66.87;100377.31;5093939;28;20023;-83
2023/07/15 05:10:13;;;;;;;0.90;0.90;;;;;;;18.03;67.50;100378.00;5094487;28;20426;-83
2023/07/15 05:12:39;;;;;;;1.25;1.20;;;;;;;18.07;68.03;100370.78;5093610;28;20035;-83
2023/07/15 05:15:05;;;;;;;1.17;1.10;;;;;;;18.05;68.13;100368.25;5094383;28;20031;-83
2023/07/15 05:17:30;;;;;;;1.00;1.00;;;;;;;18.12;66.95;100365.31;5094031;28;20074;-84
2023/07/15 05:19:56;;;;;;;0.90;0.90;;;;;;;18.19;67.17;100377.19;5093736;28;20051;-83
2023/07/15 05:22:21;;;;;;;0.93;0.87;;;;;;;18.26;66.35;100388.19;5093474;28;20097;-84
2023/07/15 05:24:48;;;;;;;0.90;0.90;;;;;;;18.35;66.71;100385.88;5093276;28;20432;-84
2023/07/15 05:27:14;;;;;;;0.82;0.82;;;;;;;18.46;66.15;100379.22;5092779;28;20031;-84
2023/07/15 05:29:39;;;;;;;1.20;1.10;;;;;;;18.53;66.95;100373.50;5093793;28;20426;-83
2023/07/15 05:32:08;;;;;;;0.97;0.97;;;;;;;18.61;67.30;100373.09;5093448;28;20099;-84
2023/07/15 05:34:33;;;;;;;1.42;1.33;;;;;;;18.70;68.63;100373.50;5093907;28;20034;-92
2023/07/15 05:36:58;;;;;;;1.30;1.20;;;;;;;18.77;66.55;100380.94;5093935;28;20016;-86
2023/07/15 05:39:24;;;;;;;1.20;1.10;;;;;;;18.87;66.13;100386.53;5093031;28;20078;-88
2023/07/15 05:41:49;;;;;;;1.00;1.00;;;;;;;18.98;66.50;100388.56;5093464;28;20047;-85
2023/07/15 05:44:15;;;;;;;0.80;0.80;;;;;;;19.10;66.70;100384.38;5093398;28;20502;-85
2023/07/15 05:46:40;;;;;;;0.63;0.63;;;;;;;19.18;66.88;100370.78;5093066;28;20384;-86
2023/07/15 05:49:05;;;;;;;0.70;0.70;;;;;;;19.32;67.45;100383.13;5094241;28;20031;-85
2023/07/15 05:51:31;;;;;;;0.60;0.60;;;;;;;19.40;66.66;100397.53;5093545;28;20097;-86
2023/07/15 05:54:00;;;;;;;1.42;0.80;;;;;;;19.50;69.17;100383.81;5092509;28;20024;-88
2023/07/15 05:56:25;;;;;;;1.20;1.10;;;;;;;19.64;67.42;100389.09;5092597;28;20544;-83
2023/07/15 05:58:51;;;;;;;1.00;1.00;;;;;;;19.78;67.53;100390.00;5093021;28;20032;-85
2023/07/15 06:01:16;;;;;;;1.00;1.00;;;;;;;19.92;68.46;100395.31;5092335;28;20020;-85
2023/07/15 06:03:41;;;;;;;1.27;1.17;;;;;;;20.02;67.16;100392.97;5093166;28;20016;-85
2023/07/15 06:06:07;;;;;;;1.00;1.00;;;;;;;20.12;66.28;100391.44;5093010;28;20021;-85
2023/07/15 06:08:32;;;;;;;1.00;1.00;;;;;;;20.25;65.68;100390.66;5092555;28;20020;-85
2023/07/15 06:10:58;;;;;;;1.00;0.90;;;;;;;20.30;66.40;100385.94;5093101;28;20020;-85
2023/07/15 06:13:23;;;;;;;1.40;1.30;;;;;;;20.33;65.69;100385.75;5093104;28;20080;-85
2023/07/15 06:15:50;;;;;;;1.97;1.60;;;;;;;20.40;65.20;100391.47;5091847;28;20541;-85
2023/07/15 06:18:16;;;;;;;1.50;1.40;;;;;;;20.93;65.21;100408.25;5092853;28;20023;-85
2023/07/15 06:20:41;;;;;;;1.37;1.27;;;;;;;21.95;63.35;100399.72;5092944;28;20032;-85
2023/07/15 06:23:06;;;;;;;1.50;1.40;;;;;;;;;;5092154;28;20058;-85
2023/07/15 06:25:32;;;;;;;1.90;1.60;;;;;;;22.66;60.10;100405.25;5092538;28;20042;-84
2023/07/15 06:27:57;;;;;;;2.90;1.83;;;;;;;22.76;60.31;100403.63;5092670;28;20026;-86
2023/07/15 06:30:22;;;;;;;1.80;1.70;;;;;;;22.83;60.31;100401.34;5092472;28;20028;-85
2023/07/15 06:32:50;;;;;;;2.37;1.80;;;;;;;22.92;59.69;100392.72;5093061;28;20024;-85
2023/07/15 06:35:15;;;;;;;2.00;1.80;;;;;;;22.99;60.72;100393.94;5092598;28;20034;-84
2023/07/15 06:37:41;;;;;;;1.90;1.77;;;;;;;22.88;60.33;100398.38;5092322;28;20376;-85
2023/07/15 06:40:09;;;;;;;1.90;1.70;;;;;;;22.67;60.89;100401.66;5093030;28;20031;-84
2023/07/15 06:42:35;;;;;;;1.80;1.70;;;;;;;22.44;61.54;100392.75;5092265;28;20079;-85
2023/07/15 06:45:00;;;;;;;1.40;1.30;;;;;;;22.46;62.33;100399.59;5092841;28;20028;-86
2023/07/15 06:47:25;;;;;;;1.27;1.17;;;;;;;22.89;61.44;100413.28;5093369;28;20488;-90
2023/07/15 06:49:51;;;;;;;1.42;1.33;;;;;;;23.33;61.80;100395.03;5093116;28;20023;-89
2023/07/15 06:52:16;;;;;;;1.63;1.30;;;;;;;23.81;60.50;100407.25;5092867;28;20055;-89
2023/07/15 06:54:41;;;;;;;1.33;1.30;;;;;;;24.11;59.92;100395.22;5092325;28;20537;-89
2023/07/15 06:57:07;;;;;;;0.97;0.97;;;;;;;24.42;60.41;100385.66;5091852;28;20036;-86
2023/07/15 06:59:32;;;;;;;1.50;1.40;;;;;;;24.63;58.72;100391.00;5093056;28;20081;-88
2023/07/15 07:01:57;;;;;;;1.33;1.23;;;;;;;24.76;57.84;100393.53;5092925;28;20050;-87
2023/07/15 07:04:23;;;;;;;2.73;1.77;;;;;;;24.97;57.40;100376.78;5091431;28;20384;-87
2023/07/15 07:06:48;;;;;;;1.97;1.70;;;;;;;25.19;57.93;100390.91;5093018;28;20070;-87
2023/07/15 07:09:14;;;;;;;1.50;1.40;;;;;;;25.45;57.02;100399.34;5092381;28;20016;-87
2023/07/15 07:11:39;;;;;;;1.87;1.73;;;;;;;25.68;56.72;100391.19;5092243;28;20070;-89
2023/07/15 07:14:04;;;;;;;1.40;1.30;;;;;;;25.80;56.02;100383.97;5093062;28;20035;-89
2023/07/15 07:16:30;;;;;;;1.60;1.50;;;;;;;25.95;55.00;100384.47;5092630;28;20012;-87
2023/07/15 07:18:55;;;;;;;1.47;1.37;;;;;;;26.09;53.99;100396.53;5092031;28;20020;-85
2023/07/15 07:21:20;;;;;;;2.05;1.50;;;;;;;26.11;53.73;100394.59;5091547;28;20028;-84
2023/07/15 07:23:46;;;;;;;1.67;1.57;;;;;;;26.25;52.62;100398.69;5091641;28;20658;-79
2023/07/15 07:26:11;;;;;;;1.80;1.60;;;;;;;26.26;54.67;100395.88;5091530;28;20024;-82
2023/07/15 07:28:44;;;;;;;3.00;1.70;;;;;;;26.39;52.68;100410.75;5096234;28;20301;-83
2023/07/15 07:31:11;;;;;;;1.65;1.50;;;;;;;26.46;53.09;100404.75;5095718;28;20137;-83
2023/07/15 07:33:38;;;;;;;2.50;1.70;;;;;;;26.55;53.38;100407.56;5095783;28;20031;-83
2023/07/15 07:36:03;;;;;;;1.60;1.50;;;;;;;26.58;52.17;100410.78;5096284;28;20107;-82
2023/07/15 07:38:29;;;;;;;1.80;1.50;;;;;;;26.64;53.89;100418.22;5095782;28;20157;-82
2023/07/15 07:40:54;;;;;;;1.50;1.40;;;;;;;26.87;52.92;100414.47;5095278;28;20383;-82
2023/07/15 07:43:20;;;;;;;1.30;1.20;;;;;;;26.78;53.32;100419.66;5095971;28;20031;-83
2023/07/15 07:45:46;;;;;;;1.50;1.40;;;;;;;26.68;53.46;100418.78;5095312;28;20441;-82
2023/07/15 07:48:11;;;;;;;1.65;1.55;;;;;;;26.53;53.21;100418.34;5095589;28;20043;-82
2023/07/15 07:50:37;;;;;;;1.50;1.40;;;;;;;26.29;52.81;100408.91;5095454;28;20023;-83
2023/07/15 07:53:03;;;;;;;1.77;1.30;;;;;;;26.18;53.60;100403.72;5094445;28;20570;-83
2023/07/15 07:55:31;;;;;;;1.60;1.50;;;;;;;26.00;53.17;100409.66;5095445;28;20028;-82
2023/07/15 07:57:56;;;;;;;1.65;1.45;;;;;;;25.98;54.81;100400.97;5095355;28;20052;-82
2023/07/15 08:00:22;;;;;;;1.27;1.27;;;;;;;26.09;54.61;100408.00;5094832;28;20486;-82
2023/07/15 08:02:47;;;;;;;1.40;1.20;;;;;;;26.17;55.96;100394.06;5095560;28;20542;-82
2023/07/15 08:05:12;;;;;;;1.60;1.50;;;;;;;26.26;55.56;100395.88;5094768;28;20024;-85
2023/07/15 08:07:38;;;;;;;1.30;1.17;;;;;;;26.29;54.81;100398.28;5093786;28;20506;-84
2023/07/15 08:10:03;;;;;;;1.60;1.50;;;;;;;26.32;54.56;100418.44;5095854;28;20024;-85
2023/07/15 08:12:29;;;;;;;1.58;1.48;;;;;;;26.16;54.53;100418.97;5095056;28;20127;-85
2023/07/15 08:14:54;;;;;;;4.83;1.80;;;;;;;26.05;55.22;100423.38;5094874;28;20102;-83
2023/07/15 08:17:19;;;;;;;3.27;1.30;;;;;;;26.01;56.01;100416.63;5094318;28;20032;-86
2023/07/15 08:19:44;;;;;;;3.93;1.70;;;;;;;25.97;55.52;100414.38;5095570;28;20468;-84
2023/07/15 08:22:10;;;;;;;2.10;1.77;;;;;;;25.94;56.03;100414.66;5094772;28;20468;-86
2023/07/15 08:24:35;;;;;;;1.70;1.60;;;;;;;25.97;55.20;100425.00;5095102;28;20063;-85
2023/07/15 08:27:00;;;;;;;1.70;1.60;;;;;;;25.94;55.52;100425.31;5095142;28;20031;-85
2023/07/15 08:29:26;;;;;;;2.45;1.55;;;;;;;25.89;55.93;100429.19;5094664;28;20105;-85
2023/07/15 08:31:51;;;;;;;1.50;1.40;;;;;;;25.97;56.61;100431.19;5095327;28;20472;-84
2023/07/15 08:34:16;;;;;;;1.40;1.30;;;;;;;26.02;56.78;100420.97;5094411;28;20070;-85
2023/07/15 08:36:42;;;;;;;1.90;1.47;;;;;;;25.93;55.33;100428.94;5094452;28;20078;-85
2023/07/15 08:39:07;;;;;;;1.50;1.40;;;;;;;25.78;56.48;100420.47;5093259;28;20016;-85
2023/07/15 08:41:33;;;;;;;1.80;1.30;;;;;;;25.62;56.64;100429.75;5094375;28;20426;-84
2023/07/15 08:43:58;;;;;;;1.38;1.27;;;;;;;25.52;58.54;100426.22;5094390;28;20031;-84
2023/07/15 08:46:29;;;;;;;0.87;0.83;;;;;;;25.50;57.27;100446.75;5094436;28;20484;-85
2023/07/15 08:48:55;;;;;;;2.20;1.25;;;;;;;25.49;57.66;100447.72;5094279;28;20028;-84
2023/07/15 08:51:24;;;;;;;1.58;1.38;;;;;;;25.51;58.53;100451.09;5093855;28;20036;-84
2023/07/15 08:53:49;;;;;;;1.00;1.00;;;;;;;25.58;57.66;100452.25;5094407;28;20495;-84
2023/07/15 08:56:15;;;;;;;3.50;1.67;;;;;;;25.53;56.77;100455.28;5093614;28;20024;-83
2023/07/15 08:58:41;;;;;;;1.65;1.55;;;;;;;25.40;56.54;100455.50;5094842;28;20541;-83
2023/07/15 09:01:06;;;;;;;2.85;1.67;;;;;;;25.23;56.51;100458.69;5094107;28;20024;-82
2023/07/15 09:03:32;;;;;;;2.83;1.80;;;;;;;25.13;56.59;100466.59;5093627;28;20027;-83
2023/07/15 09:05:57;;;;;;;2.00;1.90;;;;;;;25.00;57.32;100485.34;5094294;28;20055;-84
2023/07/15 09:08:24;;;;;;;3.50;1.70;;;;;;;24.87;57.10;100484.69;5094167;28;20020;-84
2023/07/15 09:10:59;;;;;;;3.40;1.95;;;;;;;24.67;57.44;100485.28;5093466;28;20552;-86
2023/07/15 09:13:32;;;;;;;2.35;1.90;;;;;;;24.42;56.50;100481.13;5094380;28;20111;-85
2023/07/15 09:15:58;;;;;;;2.47;1.90;;;;;;;24.26;56.67;100478.84;5094046;28;20035;-85
2023/07/15 09:18:24;;;;;;;2.60;1.95;;;;;;;24.10;56.69;100479.19;5092584;28;20032;-85
2023/07/15 09:20:49;;;;;;;3.03;1.90;;;;;;;24.09;57.67;100469.59;5093477;28;20375;-86
2023/07/15 09:23:15;;;;;;;3.38;1.95;;;;;;;24.08;57.88;100467.88;5093500;28;20399;-85
2023/07/15 09:25:53;;;;;;;2.00;1.80;;;;;;;24.14;57.91;100471.88;5093496;28;20107;-86
2023/07/15 09:28:21;;;;;;;3.15;1.90;;;;;;;24.22;58.97;100477.41;5093408;28;20034;-84
2023/07/15 09:30:47;;;;;;;2.10;1.90;;;;;;;24.30;58.03;100474.97;5093796;28;20036;-86
2023/07/15 09:33:33;;;;;;;3.38;1.90;;;;;;;24.45;58.75;100477.38;5093069;28;20035;-84
2023/07/15 09:35:59;;;;;;;;;;;;;;;24.60;58.60;100473.47;5094729;28;20024;-86
2023/07/15 09:38:32;;;;;;;2.03;1.83;;;;;;;24.66;58.01;100490.72;5092080;28;19925;-84
2023/07/15 09:40:59;;;;;;;2.20;1.90;;;;;;;24.62;57.01;100484.81;5093417;28;20455;-86
2023/07/15 09:43:44;;;;;;;2.22;1.80;;;;;;;24.62;56.78;100484.81;5093377;28;20374;-86
2023/07/15 09:46:11;;;;;;;2.15;1.95;;;;;;;24.55;57.48;100486.28;5096489;28;20048;-91
2023/07/15 09:48:37;;;;;;;2.65;1.80;;;;;;;24.46;57.82;100487.84;5094511;28;20464;-81
2023/07/15 09:51:02;;;;;;;2.17;1.98;;;;;;;24.43;58.26;100504.00;5093682;28;20026;-80
2023/07/15 09:53:28;;;;;;;3.33;1.83;;;;;;;24.41;57.64;100497.13;5092788;28;20464;-82
2023/07/15 09:55:54;;;;;;;2.10;1.90;;;;;;;24.39;58.33;100512.31;5093175;28;20266;-82
2023/07/15 09:58:22;;;;;;;2.90;2.00;;;;;;;24.34;58.46;100525.94;5093162;28;20055;-85
2023/07/15 10:01:12;;;;;;;2.55;1.95;;;;;;;24.27;58.48;100514.16;5093420;28;20059;-81
2023/07/15 10:03:42;;;;;;;2.80;1.88;;;;;;;24.17;58.17;100521.97;5093290;28;20030;-82
2023/07/15 10:06:07;;;;;;;2.30;1.90;;;;;;;24.06;58.59;100525.47;5092040;28;20031;-83
2023/07/15 10:08:34;;;;;;;2.42;1.90;;;;;;;23.94;58.58;100523.75;5091466;28;20472;-83
2023/07/15 10:11:00;;;;;;;1.83;1.73;;;;;;;23.87;59.37;100523.38;5093435;28;20035;-84
2023/07/15 10:13:26;;;;;;;;;;;;;;;23.84;59.46;100510.34;5092598;28;20016;-83
2023/07/15 10:15:52;;;;;;;3.15;1.80;;;;;;;23.80;60.03;100515.03;5092849;28;19922;-85
2023/07/15 10:18:18;;;;;;;2.60;1.98;;;;;;;23.73;61.59;100513.84;5092937;28;20024;-82
2023/07/15 10:20:54;;;;;;;2.90;1.77;;;;;;;23.62;63.56;100501.38;5092409;28;20065;-83
2023/07/15 10:23:30;;;;;;;2.67;1.80;;;;;;;23.50;62.51;100489.94;5092954;28;20035;-84
2023/07/15 10:26:19;;;;;;;2.05;1.63;;;;;;;23.37;65.04;100487.34;5093191;28;20028;-83
2023/07/15 10:28:44;;;;;;;2.13;1.85;;;;;;;23.22;64.97;100476.09;5071733;28;20182;-83
2023/07/15 10:31:15;;;;;;;1.70;1.60;;;;;;;23.12;65.62;100475.94;5077787;28;20103;-83
2023/07/15 10:34:02;;;;;;;1.63;1.52;;;;;;;23.20;65.44;100485.13;5088270;28;20031;-84
2023/07/15 10:36:44;;;;;;;1.92;1.70;;;;;;;23.27;70.90;100495.16;5072128;28;20059;-82
2023/07/15 10:39:19;;;;;;;2.30;1.80;;;;;;;23.35;67.27;100491.06;5072999;28;20048;-82
2023/07/15 10:41:50;;;;;;;1.67;1.58;;;;;;;23.40;68.32;100486.28;5071855;28;20085;-83
2023/07/15 10:44:23;;;;;;;2.00;1.70;;;;;;;23.51;69.15;100488.97;5072950;28;20052;-82
2023/07/15 10:47:02;;;;;;;1.27;1.20;;;;;;;23.71;69.75;100487.44;5092280;28;20098;-83
2023/07/15 10:49:27;;;;;;;1.10;1.10;;;;;;;23.80;68.86;100491.19;5091636;28;20035;-85
2023/07/15 10:51:57;;;;;;;1.60;1.50;;;;;;;23.78;67.74;100493.09;5092578;28;20020;-84
2023/07/15 10:54:25;;;;;;;1.92;1.73;;;;;;;23.67;67.93;100488.66;5091691;28;20095;-84
2023/07/15 10:56:50;;;;;;;1.70;1.60;;;;;;;23.66;67.64;100484.31;5092234;28;20044;-84
2023/07/15 10:59:16;;;;;;;1.67;1.40;;;;;;;23.72;67.94;100498.91;5092699;28;20111;-85
2023/07/15 11:01:42;;;;;;;2.20;1.60;;;;;;;23.75;67.51;100502.16;5094413;28;20031;-84
2023/07/15 11:04:08;;;;;;;4.32;1.73;;;;;;;23.83;66.98;100500.69;5096131;28;20081;-85
2023/07/15 11:06:34;;;;;;;2.10;1.90;;;;;;;23.81;66.36;100510.59;5095668;28;20044;-83
2023/07/15 11:09:16;;;;;;;2.05;1.85;;;;;;;23.69;66.65;100504.41;5085420;28;20020;-84
2023/07/15 11:11:45;;;;;;;2.50;1.80;;;;;;;23.60;66.84;100493.56;5080130;28;20468;-84
2023/07/15 11:14:29;;;;;;;7.10;2.10;;;;;;;23.56;67.75;100492.09;5090947;28;20038;-84
2023/07/15 11:17:00;;;;;;;3.15;2.13;;;;;;;23.74;66.87;100491.69;5085421;28;20077;-85
2023/07/15 11:19:27;;;;;;;2.08;1.80;;;;;;;23.94;67.46;100486.63;5085041;28;20028;-85
2023/07/15 11:21:54;;;;;;;2.05;1.88;;;;;;;24.06;65.35;100483.91;5084749;28;20029;-84
2023/07/15 11:24:22;;;;;;;2.45;2.00;;;;;;;24.20;65.62;100493.44;5085334;28;20540;-85
2023/07/15 11:26:47;;;;;;;2.15;1.90;;;;;;;24.23;63.79;100472.94;5086596;28;20074;-84